aviador You're here:

PAGH Decoded Metar

in
Report Time2018-05-25 19:56:00
UTC Time2018-05-25 20:48:33
Flight Rules ifr IFR
Wind260° at 05 kt
W.Decomp.*RWY 27: 4.9 kt HW 0.9 kt LCW
W.Rank260° ranks 7
Current wind is below 260° avg. (6.4)
Visibility9999 m
Phenomena:N/A
Clouds:Overcast 006 Hf
Expected CloudBase > 800 ft AGL from Temp-Dew spread
Ceiling600 ft
Temp02°C
Dew Point00°C (87% RH)
AAT-1.8°C
QNH1008 hPa
Raw Report
PAGH 251956Z AUTO 26005KT 10SM OVC006 02/00 A2977 RMK AO2 SLP085
T00220000 FZRANO=

Extra information for PAGH:More info

Social comments